sensor_id;sensor_type;location;lat;lon;timestamp;pressure;altitude;pressure_sealevel;temperature;humidity
22550;BME280;11441;57.164;-2.120;2023-01-30T00:03:54;100145.00;;;4.94;100.00
22550;BME280;11441;57.164;-2.120;2023-01-30T00:07:41;100165.66;;;5.03;100.00
22550;BME280;11441;57.164;-2.120;2023-01-30T00:11:16;100167.78;;;4.98;100.00
22550;BME280;11441;57.164;-2.120;2023-01-30T00:14:14;100157.47;;;5.03;100.00
22550;BME280;11441;57.164;-2.120;2023-01-30T00:24:13;100170.03;;;4.96;100.00
22550;BME280;11441;57.164;-2.120;2023-01-30T00:28:02;100165.59;;;4.82;100.00
22550;BME280;11441;57.164;-2.120;2023-01-30T00:56:18;100153.63;;;4.75;100.00
22550;BME280;11441;57.164;-2.120;2023-01-30T00:59:39;100141.50;;;4.63;100.00
22550;BME280;11441;57.164;-2.120;2023-01-30T01:02:37;100142.59;;;4.62;100.00
22550;BME280;11441;57.164;-2.120;2023-01-30T01:05:25;100137.72;;;4.77;100.00
22550;BME280;11441;57.164;-2.120;2023-01-30T01:14:52;100150.69;;;4.50;100.00
22550;BME280;11441;57.164;-2.120;2023-01-30T01:17:20;100151.44;;;4.59;100.00
22550;BME280;11441;57.164;-2.120;2023-01-30T01:19:50;100150.97;;;4.57;100.00
22550;BME280;11441;57.164;-2.120;2023-01-30T01:22:58;100138.81;;;4.46;100.00
22550;BME280;11441;57.164;-2.120;2023-01-30T01:25:40;100136.31;;;4.32;100.00
22550;BME280;11441;57.164;-2.120;2023-01-30T01:28:47;100149.06;;;4.49;100.00
22550;BME280;11441;57.164;-2.120;2023-01-30T01:31:47;100147.97;;;4.50;100.00
22550;BME280;11441;57.164;-2.120;2023-01-30T01:38:27;100146.56;;;4.35;100.00
22550;BME280;11441;57.164;-2.120;2023-01-30T02:09:10;100103.13;;;4.60;100.00
22550;BME280;11441;57.164;-2.120;2023-01-30T02:12:30;100104.22;;;4.67;100.00
22550;BME280;11441;57.164;-2.120;2023-01-30T02:15:29;100089.56;;;4.81;100.00
22550;BME280;11441;57.164;-2.120;2023-01-30T02:17:56;100093.59;;;4.75;100.00
22550;BME280;11441;57.164;-2.120;2023-01-30T02:50:04;100157.72;;;4.89;100.00
22550;BME280;11441;57.164;-2.120;2023-01-30T02:52:36;100168.19;;;5.08;100.00
22550;BME280;11441;57.164;-2.120;2023-01-30T02:55:19;100204.34;;;4.76;100.00
22550;BME280;11441;57.164;-2.120;2023-01-30T02:57:47;100209.91;;;4.88;100.00
22550;BME280;11441;57.164;-2.120;2023-01-30T03:00:20;100190.38;;;4.68;100.00
22550;BME280;11441;57.164;-2.120;2023-01-30T03:03:05;100198.19;;;4.79;100.00
22550;BME280;11441;57.164;-2.120;2023-01-30T03:14:45;100232.91;;;4.69;100.00
22550;BME280;11441;57.164;-2.120;2023-01-30T03:17:19;100237.44;;;4.65;100.00
22550;BME280;11441;57.164;-2.120;2023-01-30T03:19:52;100221.50;;;4.76;100.00
22550;BME280;11441;57.164;-2.120;2023-01-30T03:22:20;100274.47;;;4.75;100.00
22550;BME280;11441;57.164;-2.120;2023-01-30T03:24:50;100267.25;;;4.70;100.00
22550;BME280;11441;57.164;-2.120;2023-01-30T03:27:24;100266.09;;;4.80;100.00
22550;BME280;11441;57.164;-2.120;2023-01-30T03:29:52;100272.16;;;4.95;100.00
22550;BME280;11441;57.164;-2.120;2023-01-30T03:32:23;100280.97;;;5.00;100.00
22550;BME280;11441;57.164;-2.120;2023-01-30T03:34:51;100280.59;;;5.10;100.00
22550;BME280;11441;57.164;-2.120;2023-01-30T03:37:18;100277.00;;;5.19;100.00
22550;BME280;11441;57.164;-2.120;2023-01-30T03:40:04;100296.56;;;5.29;100.00
22550;BME280;11441;57.164;-2.120;2023-01-30T03:42:36;100304.09;;;5.33;100.00
22550;BME280;11441;57.164;-2.120;2023-01-30T03:45:23;100306.50;;;5.34;100.00
22550;BME280;11441;57.164;-2.120;2023-01-30T03:47:52;100318.56;;;5.33;100.00
22550;BME280;11441;57.164;-2.120;2023-01-30T03:50:48;100294.06;;;5.45;100.00
22550;BME280;11441;57.164;-2.120;2023-01-30T03:53:29;100320.44;;;5.41;100.00
22550;BME280;11441;57.164;-2.120;2023-01-30T03:56:00;100312.13;;;5.29;100.00
22550;BME280;11441;57.164;-2.120;2023-01-30T03:58:31;100319.53;;;5.28;100.00
22550;BME280;11441;57.164;-2.120;2023-01-30T04:01:07;100342.47;;;5.36;100.00
22550;BME280;11441;57.164;-2.120;2023-01-30T04:03:34;100303.56;;;5.39;100.00
22550;BME280;11441;57.164;-2.120;2023-01-30T04:06:03;100340.59;;;5.28;100.00
22550;BME280;11441;57.164;-2.120;2023-01-30T04:08:33;100343.16;;;5.33;100.00
22550;BME280;11441;57.164;-2.120;2023-01-30T04:11:02;100336.53;;;5.34;100.00
22550;BME280;11441;57.164;-2.120;2023-01-30T04:13:29;100338.94;;;5.36;100.00
22550;BME280;11441;57.164;-2.120;2023-01-30T04:16:24;100342.41;;;5.45;100.00
22550;BME280;11441;57.164;-2.120;2023-01-30T04:19:10;100361.25;;;5.38;100.00
22550;BME280;11441;57.164;-2.120;2023-01-30T04:21:38;100351.50;;;5.28;100.00
22550;BME280;11441;57.164;-2.120;2023-01-30T04:24:06;100364.03;;;5.29;100.00
22550;BME280;11441;57.164;-2.120;2023-01-30T04:26:33;100362.31;;;5.16;100.00
22550;BME280;11441;57.164;-2.120;2023-01-30T04:29:01;100369.25;;;5.04;100.00
22550;BME280;11441;57.164;-2.120;2023-01-30T04:31:29;100374.50;;;5.18;100.00
22550;BME280;11441;57.164;-2.120;2023-01-30T04:34:18;100380.63;;;5.15;100.00
22550;BME280;11441;57.164;-2.120;2023-01-30T04:36:45;100392.69;;;5.05;100.00
22550;BME280;11441;57.164;-2.120;2023-01-30T04:39:13;100392.53;;;5.10;100.00
22550;BME280;11441;57.164;-2.120;2023-01-30T04:41:59;100386.53;;;5.17;100.00
22550;BME280;11441;57.164;-2.120;2023-01-30T04:44:27;100406.50;;;5.09;100.00
22550;BME280;11441;57.164;-2.120;2023-01-30T04:47:15;100417.38;;;5.26;100.00
22550;BME280;11441;57.164;-2.120;2023-01-30T04:49:42;100427.69;;;5.21;100.00
22550;BME280;11441;57.164;-2.120;2023-01-30T04:52:29;100430.38;;;5.29;100.00
22550;BME280;11441;57.164;-2.120;2023-01-30T04:54:57;100431.53;;;5.20;100.00
22550;BME280;11441;57.164;-2.120;2023-01-30T04:57:24;100440.69;;;5.15;100.00
22550;BME280;11441;57.164;-2.120;2023-01-30T04:59:52;100447.09;;;5.28;100.00
22550;BME280;11441;57.164;-2.120;2023-01-30T05:02:20;100441.50;;;5.16;100.00
22550;BME280;11441;57.164;-2.120;2023-01-30T05:04:49;100446.28;;;5.19;100.00
22550;BME280;11441;57.164;-2.120;2023-01-30T05:07:17;100445.50;;;5.18;100.00
22550;BME280;11441;57.164;-2.120;2023-01-30T05:09:44;100459.50;;;4.99;100.00
22550;BME280;11441;57.164;-2.120;2023-01-30T05:12:12;100464.94;;;5.08;100.00
22550;BME280;11441;57.164;-2.120;2023-01-30T05:14:51;100483.59;;;4.97;100.00
22550;BME280;11441;57.164;-2.120;2023-01-30T05:17:38;100498.84;;;4.98;100.00
22550;BME280;11441;57.164;-2.120;2023-01-30T05:20:09;100495.31;;;4.98;100.00
22550;BME280;11441;57.164;-2.120;2023-01-30T05:22:58;100519.72;;;4.85;100.00
22550;BME280;11441;57.164;-2.120;2023-01-30T05:25:27;100516.66;;;4.96;100.00
22550;BME280;11441;57.164;-2.120;2023-01-30T05:27:55;100503.66;;;5.01;100.00
22550;BME280;11441;57.164;-2.120;2023-01-30T05:30:23;100521.16;;;5.09;100.00
22550;BME280;11441;57.164;-2.120;2023-01-30T05:32:50;100514.88;;;5.00;100.00
22550;BME280;11441;57.164;-2.120;2023-01-30T05:35:21;100540.13;;;4.97;100.00
22550;BME280;11441;57.164;-2.120;2023-01-30T05:38:07;100539.63;;;5.03;100.00
22550;BME280;11441;57.164;-2.120;2023-01-30T05:40:34;100558.09;;;5.06;100.00
22550;BME280;11441;57.164;-2.120;2023-01-30T05:43:01;100561.78;;;5.10;100.00
22550;BME280;11441;57.164;-2.120;2023-01-30T05:45:28;100569.66;;;5.03;100.00
22550;BME280;11441;57.164;-2.120;2023-01-30T05:47:58;100573.34;;;5.16;100.00
22550;BME280;11441;57.164;-2.120;2023-01-30T05:50:44;100592.94;;;5.18;100.00
22550;BME280;11441;57.164;-2.120;2023-01-30T05:53:31;100579.28;;;5.18;100.00
22550;BME280;11441;57.164;-2.120;2023-01-30T05:56:05;100581.53;;;5.07;100.00
22550;BME280;11441;57.164;-2.120;2023-01-30T05:58:32;100595.97;;;5.08;100.00
22550;BME280;11441;57.164;-2.120;2023-01-30T06:01:17;100611.09;;;5.05;100.00
22550;BME280;11441;57.164;-2.120;2023-01-30T06:03:44;100612.38;;;5.17;100.00
22550;BME280;11441;57.164;-2.120;2023-01-30T06:06:12;100604.19;;;5.08;100.00
22550;BME280;11441;57.164;-2.120;2023-01-30T06:08:40;100615.91;;;5.17;100.00
22550;BME280;11441;57.164;-2.120;2023-01-30T06:11:11;100627.97;;;5.16;100.00
22550;BME280;11441;57.164;-2.120;2023-01-30T06:13:38;100643.41;;;5.21;100.00
22550;BME280;11441;57.164;-2.120;2023-01-30T06:24:45;100683.88;;;5.36;100.00
22550;BME280;11441;57.164;-2.120;2023-01-30T06:49:53;100740.44;;;5.36;100.00
22550;BME280;11441;57.164;-2.120;2023-01-30T07:06:18;100804.88;;;5.37;100.00
22550;BME280;11441;57.164;-2.120;2023-01-30T07:34:06;100875.53;;;5.29;100.00
22550;BME280;11441;57.164;-2.120;2023-01-30T07:58:22;100912.09;;;5.20;100.00
22550;BME280;11441;57.164;-2.120;2023-01-30T08:00:49;100937.06;;;5.04;100.00
22550;BME280;11441;57.164;-2.120;2023-01-30T08:03:20;100942.53;;;5.04;100.00
22550;BME280;11441;57.164;-2.120;2023-01-30T08:05:47;100934.47;;;4.99;100.00
22550;BME280;11441;57.164;-2.120;2023-01-30T08:08:15;100940.28;;;5.06;100.00
22550;BME280;11441;57.164;-2.120;2023-01-30T08:10:42;100935.84;;;5.10;100.00
22550;BME280;11441;57.164;-2.120;2023-01-30T08:13:09;100950.03;;;4.99;100.00
22550;BME280;11441;57.164;-2.120;2023-01-30T08:15:36;100940.53;;;4.96;100.00
22550;BME280;11441;57.164;-2.120;2023-01-30T08:18:03;100943.78;;;4.98;100.00
22550;BME280;11441;57.164;-2.120;2023-01-30T08:20:30;100943.78;;;4.98;100.00
22550;BME280;11441;57.164;-2.120;2023-01-30T08:22:58;100945.06;;;5.01;100.00
22550;BME280;11441;57.164;-2.120;2023-01-30T08:25:27;100948.91;;;5.00;100.00
22550;BME280;11441;57.164;-2.120;2023-01-30T09:15:21;101051.13;;;5.07;100.00
22550;BME280;11441;57.164;-2.120;2023-01-30T09:55:39;101123.38;;;5.24;100.00
22550;BME280;11441;57.164;-2.120;2023-01-30T09:58:18;101133.59;;;5.18;100.00
22550;BME280;11441;57.164;-2.120;2023-01-30T10:00:45;101142.59;;;5.19;100.00
22550;BME280;11441;57.164;-2.120;2023-01-30T10:03:21;101142.88;;;5.31;100.00
22550;BME280;11441;57.164;-2.120;2023-01-30T10:06:04;101142.31;;;5.43;100.00
22550;BME280;11441;57.164;-2.120;2023-01-30T10:16:43;101152.94;;;5.44;100.00
22550;BME280;11441;57.164;-2.120;2023-01-30T10:20:00;101157.63;;;5.44;100.00
22550;BME280;11441;57.164;-2.120;2023-01-30T10:31:41;101186.72;;;5.48;100.00
22550;BME280;11441;57.164;-2.120;2023-01-30T10:34:17;101174.34;;;5.65;100.00
22550;BME280;11441;57.164;-2.120;2023-01-30T10:45:17;101218.63;;;5.76;100.00
22550;BME280;11441;57.164;-2.120;2023-01-30T10:50:52;101205.00;;;5.62;100.00
22550;BME280;11441;57.164;-2.120;2023-01-30T10:54:34;101215.03;;;5.89;100.00
22550;BME280;11441;57.164;-2.120;2023-01-30T10:59:53;101217.88;;;5.84;100.00
22550;BME280;11441;57.164;-2.120;2023-01-30T11:05:02;101228.94;;;5.79;100.00
22550;BME280;11441;57.164;-2.120;2023-01-30T11:07:31;101243.44;;;6.02;100.00
22550;BME280;11441;57.164;-2.120;2023-01-30T11:09:59;101240.75;;;5.88;100.00
22550;BME280;11441;57.164;-2.120;2023-01-30T11:12:26;101250.66;;;5.98;100.00
22550;BME280;11441;57.164;-2.120;2023-01-30T11:17:34;101272.63;;;6.07;100.00
22550;BME280;11441;57.164;-2.120;2023-01-30T11:20:14;101274.41;;;6.11;100.00
22550;BME280;11441;57.164;-2.120;2023-01-30T11:25:19;101275.34;;;6.29;100.00
22550;BME280;11441;57.164;-2.120;2023-01-30T11:28:04;101296.16;;;6.16;100.00
22550;BME280;11441;57.164;-2.120;2023-01-30T11:30:35;101297.09;;;6.34;100.00
22550;BME280;11441;57.164;-2.120;2023-01-30T11:33:16;101298.59;;;6.40;100.00
22550;BME280;11441;57.164;-2.120;2023-01-30T11:35:54;101313.94;;;6.28;100.00
22550;BME280;11441;57.164;-2.120;2023-01-30T11:38:30;101321.09;;;6.15;100.00
22550;BME280;11441;57.164;-2.120;2023-01-30T11:41:19;101317.59;;;6.46;100.00
22550;BME280;11441;57.164;-2.120;2023-01-30T11:43:47;101324.72;;;6.47;100.00
22550;BME280;11441;57.164;-2.120;2023-01-30T11:46:18;101331.66;;;6.30;100.00
22550;BME280;11441;57.164;-2.120;2023-01-30T11:48:53;101317.72;;;6.18;100.00
22550;BME280;11441;57.164;-2.120;2023-01-30T11:51:43;101319.25;;;6.24;100.00
22550;BME280;11441;57.164;-2.120;2023-01-30T11:54:14;101312.44;;;6.21;100.00
22550;BME280;11441;57.164;-2.120;2023-01-30T11:56:51;101317.78;;;6.49;100.00
22550;BME280;11441;57.164;-2.120;2023-01-30T12:02:04;101314.75;;;6.51;100.00
22550;BME280;11441;57.164;-2.120;2023-01-30T12:04:44;101314.88;;;6.46;100.00
22550;BME280;11441;57.164;-2.120;2023-01-30T12:07:33;101316.69;;;6.50;100.00
22550;BME280;11441;57.164;-2.120;2023-01-30T12:12:51;101316.75;;;6.59;100.00
22550;BME280;11441;57.164;-2.120;2023-01-30T12:15:30;101313.69;;;6.60;100.00
22550;BME280;11441;57.164;-2.120;2023-01-30T12:26:01;101337.94;;;6.76;100.00
22550;BME280;11441;57.164;-2.120;2023-01-30T12:28:55;101350.66;;;6.80;100.00
22550;BME280;11441;57.164;-2.120;2023-01-30T12:34:03;101349.72;;;6.85;100.00
22550;BME280;11441;57.164;-2.120;2023-01-30T12:42:29;101354.22;;;6.81;100.00
22550;BME280;11441;57.164;-2.120;2023-01-30T12:45:22;101357.19;;;6.93;100.00
22550;BME280;11441;57.164;-2.120;2023-01-30T12:56:34;101360.03;;;7.11;100.00
22550;BME280;11441;57.164;-2.120;2023-01-30T13:05:16;101348.97;;;6.93;100.00
22550;BME280;11441;57.164;-2.120;2023-01-30T13:13:44;101353.81;;;6.96;100.00
22550;BME280;11441;57.164;-2.120;2023-01-30T13:16:33;101359.84;;;7.07;100.00
22550;BME280;11441;57.164;-2.120;2023-01-30T13:19:08;101348.53;;;7.09;100.00
22550;BME280;11441;57.164;-2.120;2023-01-30T13:21:46;101330.28;;;7.27;100.00
22550;BME280;11441;57.164;-2.120;2023-01-30T13:26:49;101344.28;;;7.25;100.00
22550;BME280;11441;57.164;-2.120;2023-01-30T13:29:38;101335.56;;;7.23;100.00
22550;BME280;11441;57.164;-2.120;2023-01-30T13:32:42;101333.97;;;7.31;100.00
22550;BME280;11441;57.164;-2.120;2023-01-30T13:35:47;101334.59;;;7.28;100.00
22550;BME280;11441;57.164;-2.120;2023-01-30T13:38:22;101337.97;;;7.16;100.00
22550;BME280;11441;57.164;-2.120;2023-01-30T13:40:53;101336.38;;;7.24;100.00
22550;BME280;11441;57.164;-2.120;2023-01-30T13:43:34;101344.56;;;7.15;100.00
22550;BME280;11441;57.164;-2.120;2023-01-30T13:46:07;101349.06;;;7.11;100.00
22550;BME280;11441;57.164;-2.120;2023-01-30T13:49:06;101359.66;;;7.04;100.00
22550;BME280;11441;57.164;-2.120;2023-01-30T13:51:46;101345.94;;;6.95;100.00
22550;BME280;11441;57.164;-2.120;2023-01-30T13:57:30;101351.72;;;6.93;100.00
22550;BME280;11441;57.164;-2.120;2023-01-30T14:00:27;101349.34;;;7.01;100.00
22550;BME280;11441;57.164;-2.120;2023-01-30T14:08:32;101350.81;;;7.07;100.00
22550;BME280;11441;57.164;-2.120;2023-01-30T14:11:01;101342.91;;;7.05;100.00
22550;BME280;11441;57.164;-2.120;2023-01-30T14:13:28;101352.03;;;7.23;100.00
22550;BME280;11441;57.164;-2.120;2023-01-30T14:15:59;101343.72;;;7.06;100.00
22550;BME280;11441;57.164;-2.120;2023-01-30T14:18:31;101356.19;;;6.89;100.00
22550;BME280;11441;57.164;-2.120;2023-01-30T14:21:13;101349.06;;;7.11;100.00
22550;BME280;11441;57.164;-2.120;2023-01-30T14:23:41;101352.50;;;7.25;100.00
22550;BME280;11441;57.164;-2.120;2023-01-30T14:34:43;101348.47;;;7.31;100.00
22550;BME280;11441;57.164;-2.120;2023-01-30T14:45:55;101351.94;;;7.46;100.00
22550;BME280;11441;57.164;-2.120;2023-01-30T14:51:23;101342.66;;;7.24;100.00
22550;BME280;11441;57.164;-2.120;2023-01-30T14:56:51;101349.66;;;7.39;100.00
22550;BME280;11441;57.164;-2.120;2023-01-30T14:59:35;101354.97;;;7.35;100.00
22550;BME280;11441;57.164;-2.120;2023-01-30T15:04:47;101356.91;;;7.35;100.00
22550;BME280;11441;57.164;-2.120;2023-01-30T15:15:25;101364.13;;;7.31;100.00
22550;BME280;11441;57.164;-2.120;2023-01-30T15:31:55;101360.09;;;7.28;100.00
22550;BME280;11441;57.164;-2.120;2023-01-30T15:34:23;101358.72;;;7.08;100.00
22550;BME280;11441;57.164;-2.120;2023-01-30T15:36:52;101352.50;;;7.25;100.00
22550;BME280;11441;57.164;-2.120;2023-01-30T15:39:21;101350.38;;;7.22;100.00
22550;BME280;11441;57.164;-2.120;2023-01-30T15:41:50;101360.34;;;7.09;100.00
22550;BME280;11441;57.164;-2.120;2023-01-30T15:44:28;101351.69;;;7.25;100.00
22550;BME280;11441;57.164;-2.120;2023-01-30T15:52:20;101355.34;;;7.11;100.00
22550;BME280;11441;57.164;-2.120;2023-01-30T15:54:51;101345.00;;;7.08;100.00
22550;BME280;11441;57.164;-2.120;2023-01-30T15:57:27;101359.38;;;7.14;100.00
22550;BME280;11441;57.164;-2.120;2023-01-30T15:59:55;101355.94;;;6.99;100.00
22550;BME280;11441;57.164;-2.120;2023-01-30T16:02:34;101353.97;;;7.00;100.00
22550;BME280;11441;57.164;-2.120;2023-01-30T16:05:22;101344.84;;;7.05;100.00
22550;BME280;11441;57.164;-2.120;2023-01-30T16:07:53;101348.09;;;6.84;100.00
22550;BME280;11441;57.164;-2.120;2023-01-30T16:10:29;101353.84;;;6.74;100.00
22550;BME280;11441;57.164;-2.120;2023-01-30T16:12:57;101344.53;;;6.75;100.00
22550;BME280;11441;57.164;-2.120;2023-01-30T16:15:37;101342.28;;;6.77;100.00
22550;BME280;11441;57.164;-2.120;2023-01-30T16:20:57;101330.56;;;6.54;100.00
22550;BME280;11441;57.164;-2.120;2023-01-30T16:23:34;101354.19;;;6.50;100.00
22550;BME280;11441;57.164;-2.120;2023-01-30T16:26:04;101359.72;;;6.58;100.00
22550;BME280;11441;57.164;-2.120;2023-01-30T16:28:32;101358.84;;;6.72;100.00
22550;BME280;11441;57.164;-2.120;2023-01-30T16:31:37;101356.28;;;6.75;100.00
22550;BME280;11441;57.164;-2.120;2023-01-30T16:34:36;101358.47;;;6.65;100.00
22550;BME280;11441;57.164;-2.120;2023-01-30T16:40:14;101365.03;;;6.55;100.00
22550;BME280;11441;57.164;-2.120;2023-01-30T16:43:00;101365.75;;;6.47;100.00
22550;BME280;11441;57.164;-2.120;2023-01-30T16:48:30;101363.75;;;6.61;100.00
22550;BME280;11441;57.164;-2.120;2023-01-30T16:53:27;101363.34;;;6.45;100.00
22550;BME280;11441;57.164;-2.120;2023-01-30T16:58:25;101356.53;;;6.42;100.00
22550;BME280;11441;57.164;-2.120;2023-01-30T17:01:00;101352.63;;;6.35;100.00
22550;BME280;11441;57.164;-2.120;2023-01-30T17:03:30;101349.16;;;6.43;100.00
22550;BME280;11441;57.164;-2.120;2023-01-30T17:06:06;101355.84;;;6.59;100.00
22550;BME280;11441;57.164;-2.120;2023-01-30T17:08:49;101360.16;;;6.52;100.00
22550;BME280;11441;57.164;-2.120;2023-01-30T17:17:15;101341.63;;;6.49;100.00
22550;BME280;11441;57.164;-2.120;2023-01-30T17:19:45;101326.59;;;6.69;100.00
22550;BME280;11441;57.164;-2.120;2023-01-30T17:22:16;101324.06;;;6.72;100.00
22550;BME280;11441;57.164;-2.120;2023-01-30T17:25:00;101318.97;;;6.57;100.00
22550;BME280;11441;57.164;-2.120;2023-01-30T17:27:28;101305.91;;;6.54;100.00
22550;BME280;11441;57.164;-2.120;2023-01-30T17:29:56;101303.38;;;6.57;100.00
22550;BME280;11441;57.164;-2.120;2023-01-30T17:32:23;101310.56;;;6.76;100.00
22550;BME280;11441;57.164;-2.120;2023-01-30T17:34:49;101311.81;;;6.70;100.00
22550;BME280;11441;57.164;-2.120;2023-01-30T17:37:18;101304.91;;;6.72;100.00
22550;BME280;11441;57.164;-2.120;2023-01-30T17:39:47;101295.56;;;6.73;100.00
22550;BME280;11441;57.164;-2.120;2023-01-30T17:42:15;101293.13;;;6.72;100.00
22550;BME280;11441;57.164;-2.120;2023-01-30T17:44:48;101293.75;;;6.69;100.00
22550;BME280;11441;57.164;-2.120;2023-01-30T17:47:15;101285.78;;;6.81;100.00
22550;BME280;11441;57.164;-2.120;2023-01-30T17:49:41;101292.63;;;6.70;100.00
22550;BME280;11441;57.164;-2.120;2023-01-30T17:52:25;101288.34;;;6.46;100.00
22550;BME280;11441;57.164;-2.120;2023-01-30T17:54:52;101287.44;;;6.59;100.00
22550;BME280;11441;57.164;-2.120;2023-01-30T17:57:19;101260.13;;;6.77;100.00
22550;BME280;11441;57.164;-2.120;2023-01-30T17:59:46;101254.00;;;6.71;100.00
22550;BME280;11441;57.164;-2.120;2023-01-30T18:02:13;101243.16;;;6.57;100.00
22550;BME280;11441;57.164;-2.120;2023-01-30T18:04:40;101235.56;;;6.54;100.00
22550;BME280;11441;57.164;-2.120;2023-01-30T18:07:11;101248.81;;;6.61;100.00
22550;BME280;11441;57.164;-2.120;2023-01-30T18:09:56;101259.53;;;6.49;100.00
22550;BME280;11441;57.164;-2.120;2023-01-30T18:12:23;101262.16;;;6.63;100.00
22550;BME280;11441;57.164;-2.120;2023-01-30T18:14:51;101241.91;;;6.64;100.00
22550;BME280;11441;57.164;-2.120;2023-01-30T18:17:17;101257.50;;;6.63;100.00
22550;BME280;11441;57.164;-2.120;2023-01-30T18:19:44;101246.59;;;6.72;100.00
22550;BME280;11441;57.164;-2.120;2023-01-30T18:22:11;101233.72;;;6.72;100.00
22550;BME280;11441;57.164;-2.120;2023-01-30T18:24:38;101233.53;;;6.69;100.00
22550;BME280;11441;57.164;-2.120;2023-01-30T18:27:05;101230.13;;;6.63;100.00
22550;BME280;11441;57.164;-2.120;2023-01-30T18:29:31;101224.38;;;6.73;100.00
22550;BME280;11441;57.164;-2.120;2023-01-30T18:31:58;101209.22;;;6.67;100.00
22550;BME280;11441;57.164;-2.120;2023-01-30T18:34:31;101203.72;;;6.58;100.00
22550;BME280;11441;57.164;-2.120;2023-01-30T18:36:58;101196.13;;;6.55;100.00
22550;BME280;11441;57.164;-2.120;2023-01-30T18:39:25;101196.31;;;6.59;100.00
22550;BME280;11441;57.164;-2.120;2023-01-30T18:41:51;101187.78;;;6.60;100.00
22550;BME280;11441;57.164;-2.120;2023-01-30T18:44:18;101177.00;;;6.64;100.00
22550;BME280;11441;57.164;-2.120;2023-01-30T18:46:45;101174.59;;;6.63;100.00
22550;BME280;11441;57.164;-2.120;2023-01-30T18:49:14;101169.25;;;6.57;100.00
22550;BME280;11441;57.164;-2.120;2023-01-30T18:51:41;101165.53;;;6.53;100.00
22550;BME280;11441;57.164;-2.120;2023-01-30T18:54:08;101161.19;;;6.52;100.00
22550;BME280;11441;57.164;-2.120;2023-01-30T18:56:35;101149.88;;;6.45;100.00
22550;BME280;11441;57.164;-2.120;2023-01-30T18:59:03;101143.31;;;6.46;100.00
22550;BME280;11441;57.164;-2.120;2023-01-30T19:01:36;101133.50;;;6.54;100.00
22550;BME280;11441;57.164;-2.120;2023-01-30T19:04:06;101132.69;;;6.53;100.00
22550;BME280;11441;57.164;-2.120;2023-01-30T19:06:36;101138.19;;;6.53;100.00
22550;BME280;11441;57.164;-2.120;2023-01-30T19:09:04;101118.72;;;6.55;100.00
22550;BME280;11441;57.164;-2.120;2023-01-30T19:11:31;101125.16;;;6.59;100.00
22550;BME280;11441;57.164;-2.120;2023-01-30T19:14:17;101131.69;;;6.49;100.00
22550;BME280;11441;57.164;-2.120;2023-01-30T19:16:44;101119.63;;;6.41;100.00
22550;BME280;11441;57.164;-2.120;2023-01-30T19:19:11;101112.69;;;6.44;100.00
22550;BME280;11441;57.164;-2.120;2023-01-30T19:21:38;101110.28;;;6.42;100.00
22550;BME280;11441;57.164;-2.120;2023-01-30T19:24:06;101103.22;;;6.50;100.00
22550;BME280;11441;57.164;-2.120;2023-01-30T19:26:33;101103.22;;;6.50;100.00
22550;BME280;11441;57.164;-2.120;2023-01-30T19:29:00;101097.13;;;6.53;100.00
22550;BME280;11441;57.164;-2.120;2023-01-30T19:31:46;101085.50;;;6.48;100.00
22550;BME280;11441;57.164;-2.120;2023-01-30T19:34:32;101088.91;;;6.53;100.00
22550;BME280;11441;57.164;-2.120;2023-01-30T19:36:58;101082.31;;;6.54;100.00
22550;BME280;11441;57.164;-2.120;2023-01-30T19:39:26;101068.44;;;6.42;100.00
22550;BME280;11441;57.164;-2.120;2023-01-30T19:42:12;101059.13;;;6.52;100.00
22550;BME280;11441;57.164;-2.120;2023-01-30T19:44:39;101064.91;;;6.50;100.00
22550;BME280;11441;57.164;-2.120;2023-01-30T19:47:24;101060.88;;;6.48;100.00
22550;BME280;11441;57.164;-2.120;2023-01-30T19:49:50;101053.94;;;6.41;100.00
22550;BME280;11441;57.164;-2.120;2023-01-30T19:52:17;101046.38;;;6.47;100.00
22550;BME280;11441;57.164;-2.120;2023-01-30T19:55:03;101048.00;;;6.48;100.00
22550;BME280;11441;57.164;-2.120;2023-01-30T19:57:31;101039.94;;;6.43;100.00
22550;BME280;11441;57.164;-2.120;2023-01-30T19:59:57;101017.38;;;6.37;100.00
22550;BME280;11441;57.164;-2.120;2023-01-30T20:02:24;101010.50;;;6.40;100.00
22550;BME280;11441;57.164;-2.120;2023-01-30T20:04:51;101011.09;;;6.28;100.00
22550;BME280;11441;57.164;-2.120;2023-01-30T20:07:18;100995.34;;;6.42;100.00
22550;BME280;11441;57.164;-2.120;2023-01-30T20:09:45;100999.03;;;6.29;100.00
22550;BME280;11441;57.164;-2.120;2023-01-30T20:12:12;100996.94;;;6.26;100.00
22550;BME280;11441;57.164;-2.120;2023-01-30T20:14:39;100987.09;;;6.25;100.00
22550;BME280;11441;57.164;-2.120;2023-01-30T20:17:05;100976.03;;;6.30;100.00
22550;BME280;11441;57.164;-2.120;2023-01-30T20:19:32;100973.59;;;6.29;100.00
22550;BME280;11441;57.164;-2.120;2023-01-30T20:21:59;100958.97;;;6.25;100.00
22550;BME280;11441;57.164;-2.120;2023-01-30T20:24:32;100948.81;;;6.34;100.00
22550;BME280;11441;57.164;-2.120;2023-01-30T20:26:58;100945.78;;;6.35;100.00
22550;BME280;11441;57.164;-2.120;2023-01-30T20:29:25;100943.69;;;6.23;100.00
22550;BME280;11441;57.164;-2.120;2023-01-30T20:32:10;100935.63;;;6.18;100.00
22550;BME280;11441;57.164;-2.120;2023-01-30T20:34:37;100912.75;;;6.14;100.00
22550;BME280;11441;57.164;-2.120;2023-01-30T20:37:04;100919.72;;;6.20;100.00
22550;BME280;11441;57.164;-2.120;2023-01-30T20:39:31;100905.72;;;6.31;100.00
22550;BME280;11441;57.164;-2.120;2023-01-30T20:41:58;100911.66;;;6.33;100.00
22550;BME280;11441;57.164;-2.120;2023-01-30T20:44:43;100902.81;;;6.18;100.00
22550;BME280;11441;57.164;-2.120;2023-01-30T20:47:10;100898.78;;;6.16;100.00
22550;BME280;11441;57.164;-2.120;2023-01-30T20:49:37;100882.84;;;6.27;100.00
22550;BME280;11441;57.164;-2.120;2023-01-30T20:52:03;100869.66;;;6.20;100.00
22550;BME280;11441;57.164;-2.120;2023-01-30T20:54:30;100856.78;;;6.03;100.00
22550;BME280;11441;57.164;-2.120;2023-01-30T20:56:58;100854.06;;;6.12;100.00